Time;durP1;ratioP1;P1;durP2;ratioP2;P2;SDS_P1;SDS_P2;PMS_P1;PMS_P2;Temp;Humidity;BMP_temperature;BMP_pressure;BME280_temperature;BME280_humidity;BME280_pressure;Samples;Min_cycle;Max_cycle;Signal;HPM_P1;HPM_P2
2022/03/20 00:01:32;;;;;;;30.63;21.35;;;;;;;4.84;57.09;100068.78;2623030;54;20034;-65
2022/03/20 00:04:02;;;;;;;33.20;22.55;;;;;;;4.83;57.16;100058.44;2622215;54;20031;-64
2022/03/20 00:06:32;;;;;;;27.80;22.02;;;;;;;4.81;56.88;100058.56;2623656;39;20395;-62
2022/03/20 00:09:03;;;;;;;28.17;21.30;;;;;;;4.83;57.22;100054.03;2622452;54;20045;-64
2022/03/20 00:11:32;;;;;;;29.50;21.67;;;;;;;4.85;57.18;100048.66;2622534;54;20034;-62
2022/03/20 00:14:05;;;;;;;27.95;21.10;;;;;;;4.88;57.08;100053.66;2622759;54;20026;-63
2022/03/20 00:16:35;;;;;;;29.95;20.90;;;;;;;4.90;57.28;100046.53;2623099;54;20081;-60
2022/03/20 00:19:05;;;;;;;40.92;20.17;;;;;;;4.91;56.55;100045.56;2622908;54;20036;-62
2022/03/20 00:21:35;;;;;;;26.92;20.60;;;;;;;4.88;56.73;100037.94;2623016;54;20042;-61
2022/03/20 00:24:05;;;;;;;27.65;20.45;;;;;;;4.88;56.98;100040.56;2621577;54;20553;-62
2022/03/20 00:26:39;;;;;;;29.38;21.13;;;;;;;4.89;56.55;100044.84;2622468;39;20461;-64
2022/03/20 00:29:11;;;;;;;26.50;20.00;;;;;;;4.84;56.79;100033.91;2623366;54;20034;-62
2022/03/20 00:31:41;;;;;;;28.70;19.95;;;;;;;4.89;56.68;100037.81;2623403;47;20027;-66
2022/03/20 00:34:11;;;;;;;28.17;20.73;;;;;;;4.95;56.16;100039.09;2623245;47;20049;-63
2022/03/20 00:36:40;;;;;;;29.73;20.10;;;;;;;4.84;56.14;100033.91;2624616;54;20031;-64
2022/03/20 00:39:10;;;;;;;27.30;20.35;;;;;;;4.76;55.63;100026.66;2623897;54;20128;-66
2022/03/20 00:41:39;;;;;;;26.67;19.77;;;;;;;4.67;56.20;100019.56;2623877;54;20041;-64
2022/03/20 00:44:13;;;;;;;28.13;20.00;;;;;;;4.64;56.01;100025.88;2626155;39;20445;-64
2022/03/20 00:46:43;;;;;;;28.80;19.95;;;;;;;4.59;55.94;100025.44;2624250;39;20442;-66
2022/03/20 00:49:13;;;;;;;26.70;20.08;;;;;;;4.58;56.06;100021.16;2622886;54;20514;-60
2022/03/20 00:51:42;;;;;;;24.95;18.98;;;;;;;4.55;55.81;100017.94;2623365;54;20035;-63
2022/03/20 00:54:12;;;;;;;26.67;19.63;;;;;;;4.51;55.92;100009.50;2624097;39;20764;-62
2022/03/20 00:56:42;;;;;;;29.52;20.13;;;;;;;4.49;56.05;100014.06;2623197;54;20065;-61
2022/03/20 00:59:14;;;;;;;26.70;18.75;;;;;;;4.48;56.14;100012.34;2623044;54;20030;-62
2022/03/20 01:01:44;;;;;;;29.40;20.60;;;;;;;4.48;56.03;100010.56;2622997;54;20026;-62
2022/03/20 01:04:14;;;;;;;25.98;19.05;;;;;;;4.48;56.10;100012.34;2622615;54;20106;-62
2022/03/20 01:06:44;;;;;;;25.58;18.60;;;;;;;4.42;56.12;100008.47;2623481;54;20033;-61
2022/03/20 01:09:13;;;;;;;27.63;19.48;;;;;;;4.39;56.00;100013.94;2623759;54;20034;-62
2022/03/20 01:11:44;;;;;;;28.90;20.00;;;;;;;4.33;55.76;100011.81;2623691;54;20038;-62
2022/03/20 01:14:16;;;;;;;27.48;17.80;;;;;;;4.30;56.23;100006.84;2623844;54;20034;-64
2022/03/20 01:16:46;;;;;;;28.60;19.48;;;;;;;4.28;55.90;100000.03;2624392;54;20549;-62
2022/03/20 01:19:15;;;;;;;26.08;19.13;;;;;;;4.28;56.20;99989.56;2624095;54;20616;-62
2022/03/20 01:21:46;;;;;;;24.38;19.20;;;;;;;4.33;56.15;99987.44;2623541;54;20038;-64
2022/03/20 01:24:15;;;;;;;24.98;19.27;;;;;;;4.32;55.78;99991.81;2623689;39;20459;-63
2022/03/20 01:26:45;;;;;;;27.80;19.60;;;;;;;4.30;55.78;99985.88;2623243;54;20062;-63
2022/03/20 01:29:18;;;;;;;28.10;19.25;;;;;;;4.32;55.42;99988.38;2623720;54;20043;-63
2022/03/20 01:31:49;;;;;;;27.45;18.45;;;;;;;4.27;55.50;99980.06;2623595;54;20038;-64
2022/03/20 01:34:18;;;;;;;27.00;19.02;;;;;;;4.21;55.35;99963.91;2623381;54;20549;-63
2022/03/20 01:36:48;;;;;;;27.08;18.73;;;;;;;4.18;55.58;99969.38;2624411;39;20453;-64
2022/03/20 01:39:18;;;;;;;26.48;18.10;;;;;;;4.14;55.51;99961.91;2623822;54;20042;-63
2022/03/20 01:41:48;;;;;;;27.13;19.20;;;;;;;4.08;55.65;99960.63;2623744;54;20042;-63
2022/03/20 01:44:20;;;;;;;29.85;19.38;;;;;;;4.09;55.29;99959.66;2623352;54;20030;-63
2022/03/20 01:46:51;;;;;;;26.98;19.90;;;;;;;4.11;55.39;99949.88;2623109;54;20163;-63
2022/03/20 01:49:21;;;;;;;27.27;19.60;;;;;;;4.10;55.42;99940.38;2623333;54;20026;-62
2022/03/20 01:54:33;;;;;;;29.35;19.20;;;;;;;4.05;55.33;99937.31;2623854;54;20145;-62
2022/03/20 01:57:02;;;;;;;27.10;18.75;;;;;;;4.04;54.72;99929.56;2623899;54;20039;-64
2022/03/20 01:59:35;;;;;;;23.88;18.02;;;;;;;3.97;55.21;99930.06;2623929;54;20038;-63
2022/03/20 02:02:05;;;;;;;25.45;18.52;;;;;;;3.97;55.26;99937.09;2623165;54;20045;-63
2022/03/20 02:04:37;;;;;;;29.88;20.08;;;;;;;3.95;55.42;99926.72;2623169;54;20038;-64
2022/03/20 02:07:07;;;;;;;25.85;18.00;;;;;;;4.02;55.15;99931.47;2623803;46;20593;-65
2022/03/20 02:09:38;;;;;;;30.27;18.75;;;;;;;4.03;54.88;99923.50;2623408;54;20042;-63
2022/03/20 02:12:09;;;;;;;26.80;20.08;;;;;;;4.03;54.71;99920.06;2622649;54;20057;-63
2022/03/20 02:14:42;;;;;;;26.80;18.60;;;;;;;4.03;54.59;99910.41;2623332;39;20710;-63
2022/03/20 02:17:13;;;;;;;26.90;18.23;;;;;;;3.98;54.56;99908.16;2623863;39;20410;-64
2022/03/20 02:19:44;;;;;;;27.83;17.65;;;;;;;3.97;54.41;99903.91;2623248;54;20026;-63
2022/03/20 02:22:16;;;;;;;23.27;17.05;;;;;;;3.96;53.87;99894.41;2623883;54;20034;-63
2022/03/20 02:24:49;;;;;;;22.73;17.13;;;;;;;3.89;54.06;99895.84;2623526;54;20030;-64
2022/03/20 02:27:22;;;;;;;25.95;17.58;;;;;;;3.85;54.40;99893.59;2623731;54;20038;-63
2022/03/20 02:29:54;;;;;;;27.92;18.52;;;;;;;3.82;54.38;99889.44;2624128;54;20061;-64
2022/03/20 02:32:27;;;;;;;27.98;18.35;;;;;;;3.78;54.55;99889.81;2623036;54;20039;-63
2022/03/20 02:34:59;;;;;;;30.40;19.25;;;;;;;3.72;54.73;99886.72;2623216;54;20025;-63
2022/03/20 02:37:32;;;;;;;25.67;18.60;;;;;;;3.69;54.66;99880.91;2623382;54;20078;-63
2022/03/20 02:40:05;;;;;;;25.83;18.50;;;;;;;3.67;54.38;99882.78;2623688;54;20034;-65
2022/03/20 02:42:34;;;;;;;28.95;18.90;;;;;;;3.65;54.50;99887.34;2623493;54;20033;-63
2022/03/20 02:45:08;;;;;;;22.55;17.40;;;;;;;3.60;54.35;99877.25;2623600;39;20426;-63
2022/03/20 02:47:40;;;;;;;28.17;18.42;;;;;;;3.61;54.92;99876.28;2623304;54;20098;-64
2022/03/20 02:50:12;;;;;;;26.70;19.45;;;;;;;3.58;54.51;99873.06;2624068;54;20046;-63
2022/03/20 02:52:49;;;;;;;28.38;18.45;;;;;;;3.57;54.49;99874.03;2623932;31;20546;-63
2022/03/20 02:55:20;;;;;;;27.00;18.67;;;;;;;3.54;54.64;99877.72;2624325;54;20034;-63
2022/03/20 02:57:50;;;;;;;26.50;19.20;;;;;;;3.56;54.74;99898.53;2624645;39;20422;-63
2022/03/20 03:00:21;;;;;;;29.73;19.45;;;;;;;3.59;54.47;99885.19;2624363;54;20026;-63
2022/03/20 03:02:54;;;;;;;25.70;18.95;;;;;;;3.52;54.56;99870.97;2622997;54;20053;-64
2022/03/20 03:05:25;;;;;;;25.88;18.98;;;;;;;3.51;54.70;99875.38;2624424;39;20474;-63
2022/03/20 03:13:27;;;;;;;26.52;18.48;;;;;;;3.40;54.68;99876.19;2622203;54;20027;-63
2022/03/20 03:15:59;;;;;;;27.98;19.13;;;;;;;3.40;54.55;99873.59;2622337;39;20585;-64
2022/03/20 03:18:29;;;;;;;29.05;19.35;;;;;;;3.39;54.59;99861.47;2622218;54;20036;-63
2022/03/20 03:20:59;;;;;;;28.95;17.85;;;;;;;3.36;54.50;99856.47;2621587;54;20031;-63
2022/03/20 03:23:32;;;;;;;24.02;17.60;;;;;;;3.32;54.81;99849.84;2620501;54;20034;-62
2022/03/20 03:26:02;;;;;;;27.58;18.83;;;;;;;3.31;54.34;99844.75;2620616;54;20026;-63
2022/03/20 03:28:34;;;;;;;25.33;17.05;;;;;;;3.25;54.86;99848.66;2622939;54;20034;-63
2022/03/20 03:31:07;;;;;;;30.30;19.30;;;;;;;3.27;54.72;99854.59;2623258;54;20645;-63
2022/03/20 03:35:41;;;;;;;30.98;18.83;;;;;;;3.33;54.46;99845.44;2622998;54;20026;-63
2022/03/20 03:36:26;;;;;;;29.15;19.25;;;;;;;3.42;54.68;99857.78;2623299;54;20589;-64
2022/03/20 03:38:58;;;;;;;29.40;19.17;;;;;;;3.46;54.11;99856.56;2623323;54;20045;-62
2022/03/20 03:41:28;;;;;;;27.55;18.38;;;;;;;3.45;54.05;99850.53;2622908;54;20557;-63
2022/03/20 03:43:57;;;;;;;30.40;18.45;;;;;;;3.48;54.12;99847.66;2623224;54;20080;-62
2022/03/20 03:46:27;;;;;;;26.60;17.92;;;;;;;3.51;54.04;99854.44;2624681;54;20030;-63
2022/03/20 03:48:58;;;;;;;28.60;19.05;;;;;;;3.59;53.48;99861.66;2624825;54;20038;-62
2022/03/20 03:51:28;;;;;;;24.55;18.23;;;;;;;3.60;53.15;99858.13;2625018;54;20039;-63
2022/03/20 03:54:00;;;;;;;29.17;19.42;;;;;;;3.60;53.03;99843.25;2624321;54;20053;-63
2022/03/20 03:56:30;;;;;;;28.27;18.92;;;;;;;3.58;53.41;99846.94;2624442;54;20038;-62
2022/03/20 03:58:59;;;;;;;24.55;17.38;;;;;;;3.58;53.24;99839.91;2624604;54;20027;-63
2022/03/20 04:01:29;;;;;;;26.67;18.30;;;;;;;3.59;52.90;99838.13;2624681;39;20411;-63
2022/03/20 04:03:59;;;;;;;27.90;18.75;;;;;;;3.59;52.98;99848.59;2624218;54;20054;-63
2022/03/20 04:06:28;;;;;;;23.92;18.20;;;;;;;3.54;53.04;99850.75;2624781;54;20078;-65
2022/03/20 04:09:01;;;;;;;23.10;17.52;;;;;;;3.53;53.26;99844.69;2624815;54;20585;-63
2022/03/20 04:11:30;;;;;;;25.60;18.35;;;;;;;3.55;53.09;99841.94;2623777;54;20042;-64
2022/03/20 04:14:00;;;;;;;29.42;16.30;;;;;;;3.54;52.75;99842.91;2624480;54;20030;-64
2022/03/20 04:16:29;;;;;;;26.42;17.30;;;;;;;3.58;52.76;99845.16;2624826;54;20037;-63
2022/03/20 04:18:59;;;;;;;29.88;18.40;;;;;;;3.66;52.66;99836.69;2624715;31;20510;-64
2022/03/20 04:21:29;;;;;;;30.33;18.13;;;;;;;3.71;52.21;99824.06;2623902;54;20034;-62
2022/03/20 04:24:01;;;;;;;26.58;17.95;;;;;;;3.77;51.94;99823.59;2625000;39;20441;-63
2022/03/20 04:26:33;;;;;;;27.58;18.30;;;;;;;3.84;51.77;99831.78;2624708;54;20039;-62
2022/03/20 04:29:03;;;;;;;24.38;17.42;;;;;;;3.92;52.03;99838.03;2624932;54;20033;-63
2022/03/20 04:31:32;;;;;;;24.02;16.92;;;;;;;4.03;51.12;99841.56;2625135;54;20038;-63
2022/03/20 04:34:02;;;;;;;26.67;17.88;;;;;;;4.05;50.80;99842.28;2624769;54;20090;-64
2022/03/20 04:36:34;;;;;;;29.42;18.08;;;;;;;4.06;50.92;99839.53;2624861;54;20031;-63
2022/03/20 04:39:06;;;;;;;26.77;18.30;;;;;;;4.08;50.79;99842.00;2625218;39;20690;-62
2022/03/20 04:41:36;;;;;;;25.25;18.38;;;;;;;4.12;50.72;99846.88;2624440;54;20046;-63
2022/03/20 04:44:12;;;;;;;23.77;16.10;;;;;;;4.12;50.32;99841.66;2624372;54;20111;-63
2022/03/20 04:46:42;;;;;;;28.45;18.65;;;;;;;4.18;50.13;99841.13;2624782;54;20034;-62
2022/03/20 05:00:03;;;;;;;27.05;17.75;;;;;;;4.49;48.90;99833.38;2624693;54;20546;-63
2022/03/20 05:02:32;;;;;;;24.88;17.52;;;;;;;4.56;48.97;99838.91;2624751;54;20039;-63
2022/03/20 05:05:02;;;;;;;26.38;17.45;;;;;;;4.67;48.55;99846.69;2624537;54;20026;-63
2022/03/20 05:07:32;;;;;;;25.52;16.42;;;;;;;4.74;48.00;99847.03;2624527;54;20045;-63
2022/03/20 05:15:30;;;;;;;24.02;17.77;;;;;;;4.86;47.83;99856.47;2624675;54;20552;-65
2022/03/20 05:18:00;;;;;;;24.25;17.90;;;;;;;4.90;47.34;99863.94;2624679;54;20037;-63
2022/03/20 05:20:29;;;;;;;28.35;18.08;;;;;;;4.92;46.80;99858.53;2624577;54;20042;-63
2022/03/20 05:22:59;;;;;;;26.38;17.80;;;;;;;4.91;46.98;99862.13;2624055;54;20038;-63
2022/03/20 05:25:32;;;;;;;24.30;17.35;;;;;;;4.95;46.63;99860.91;2624784;54;20042;-62
2022/03/20 05:28:02;;;;;;;25.42;17.55;;;;;;;4.95;46.33;99856.50;2625132;46;20057;-63
2022/03/20 05:30:32;;;;;;;27.30;17.30;;;;;;;4.99;46.13;99857.06;2624810;54;20034;-64
2022/03/20 05:33:02;;;;;;;25.35;16.75;;;;;;;5.00;45.94;99850.84;2624966;54;20041;-63
2022/03/20 05:35:32;;;;;;;27.08;17.65;;;;;;;5.01;45.88;99859.53;2624748;54;20099;-64
2022/03/20 05:38:02;;;;;;;25.13;17.90;;;;;;;5.06;46.08;99852.13;2624291;54;20022;-63
2022/03/20 05:40:35;;;;;;;25.83;17.98;;;;;;;5.08;46.15;99861.50;2625128;54;20045;-63
2022/03/20 05:43:04;;;;;;;28.10;18.02;;;;;;;5.09;45.95;99857.91;2624557;39;20412;-64
2022/03/20 05:45:34;;;;;;;24.60;17.40;;;;;;;5.09;45.71;99859.72;2624195;54;20038;-64
2022/03/20 05:48:04;;;;;;;28.73;17.88;;;;;;;5.08;45.65;99858.06;2626660;31;20491;-63
2022/03/20 05:50:34;;;;;;;25.70;18.27;;;;;;;5.06;45.61;99852.13;2624809;54;20038;-64
2022/03/20 05:53:03;;;;;;;31.33;18.60;;;;;;;5.09;45.97;99859.72;2624860;54;20534;-63
2022/03/20 05:58:18;;;;;;;26.85;18.02;;;;;;;5.09;45.99;99860.53;2624323;54;20038;-65
2022/03/20 06:00:47;;;;;;;26.70;18.67;;;;;;;5.11;45.61;99857.81;2624493;54;20041;-63
2022/03/20 06:03:17;;;;;;;26.00;18.38;;;;;;;5.15;45.70;99861.81;2623986;54;20561;-62
2022/03/20 06:05:47;;;;;;;24.95;17.60;;;;;;;5.16;45.91;99868.72;2623455;54;20029;-63
2022/03/20 06:08:19;;;;;;;28.20;18.73;;;;;;;5.16;45.57;99860.84;2624287;54;20034;-65
2022/03/20 06:10:54;;;;;;;26.85;18.02;;;;;;;5.17;45.42;99854.66;2624055;54;20027;-65
2022/03/20 06:13:24;;;;;;;30.15;18.58;;;;;;;5.18;45.41;99851.91;2624325;54;20031;-63
2022/03/20 06:15:55;;;;;;;27.70;19.80;;;;;;;5.17;45.74;99845.00;2624562;54;20034;-63
2022/03/20 06:18:26;;;;;;;27.98;20.75;;;;;;;5.19;45.72;99850.13;2624978;54;20038;-64
2022/03/20 06:20:57;;;;;;;31.13;19.52;;;;;;;5.19;45.57;99852.75;2622825;54;20058;-63
2022/03/20 06:23:28;;;;;;;25.35;19.05;;;;;;;5.19;45.46;99848.31;2621148;54;20034;-64
2022/03/20 06:26:01;;;;;;;27.20;19.50;;;;;;;5.22;45.65;99857.69;2620704;54;20037;-63
2022/03/20 06:28:30;;;;;;;28.30;19.13;;;;;;;5.21;45.37;99863.91;2621179;54;20027;-64
2022/03/20 06:31:00;;;;;;;26.65;18.50;;;;;;;5.20;45.53;99863.09;2620780;54;20525;-63
2022/03/20 06:33:47;;;;;;;27.23;18.83;;;;;;;5.25;45.74;99877.59;2619404;54;20549;-62
2022/03/20 06:36:17;;;;;;;25.05;17.88;;;;;;;5.31;45.54;99883.13;2619695;54;20031;-63
2022/03/20 06:38:47;;;;;;;27.50;18.73;;;;;;;5.39;45.75;99890.34;2620126;54;20030;-62
2022/03/20 06:41:19;;;;;;;30.02;18.80;;;;;;;5.52;45.72;99893.56;2620149;54;20027;-64
2022/03/20 06:43:49;;;;;;;27.17;19.08;;;;;;;5.59;45.56;99899.09;2619745;47;20030;-64
2022/03/20 06:46:19;;;;;;;26.20;19.27;;;;;;;5.55;45.37;99901.16;2621941;54;20534;-64
2022/03/20 06:48:55;;;;;;;27.15;18.20;;;;;;;5.56;45.20;99894.13;2620833;47;20053;-64
2022/03/20 06:51:25;;;;;;;26.10;19.58;;;;;;;5.64;45.22;99887.25;2621953;54;20035;-64
2022/03/20 06:53:56;;;;;;;27.52;19.17;;;;;;;5.64;44.95;99876.75;2621255;54;20041;-63
2022/03/20 06:56:29;;;;;;;26.60;18.42;;;;;;;5.66;45.05;99876.59;2620315;54;20038;-63
2022/03/20 06:58:59;;;;;;;28.67;19.73;;;;;;;5.65;45.12;99864.47;2621081;54;20037;-64
2022/03/20 07:01:30;;;;;;;25.58;18.88;;;;;;;5.72;45.38;99862.97;2621150;54;20534;-63
2022/03/20 07:04:00;;;;;;;28.98;19.20;;;;;;;5.79;45.12;99871.94;2620972;39;20725;-64
2022/03/20 07:06:29;;;;;;;26.17;19.20;;;;;;;5.83;44.96;99870.69;2621754;54;20034;-63
2022/03/20 07:09:01;;;;;;;25.83;18.35;;;;;;;5.92;44.68;99876.97;2623714;54;20103;-67
2022/03/20 07:11:35;;;;;;;27.63;18.92;;;;;;;6.00;44.80;99881.50;2624380;54;20053;-64
2022/03/20 07:14:04;;;;;;;24.47;19.20;;;;;;;6.04;44.72;99886.38;2623068;54;20038;-64
2022/03/20 07:16:35;;;;;;;27.20;18.85;;;;;;;6.15;44.80;99898.53;2622437;54;20034;-63
2022/03/20 07:19:05;;;;;;;31.85;19.60;;;;;;;6.34;44.27;99906.41;2622196;54;20042;-65
2022/03/20 07:21:35;;;;;;;29.05;20.55;;;;;;;6.41;44.15;99912.78;2622912;54;20039;-64
2022/03/20 07:24:05;;;;;;;31.98;20.80;;;;;;;6.60;44.03;99921.59;2621262;46;20042;-63
2022/03/20 07:29:35;;;;;;;26.85;19.65;;;;;;;6.89;43.51;99919.75;2622839;54;20027;-63
2022/03/20 07:32:07;;;;;;;27.55;19.20;;;;;;;6.93;43.17;99913.25;2622689;54;20030;-66
2022/03/20 07:34:39;;;;;;;25.95;19.55;;;;;;;7.03;43.06;99909.78;2622478;54;20034;-64
2022/03/20 07:37:09;;;;;;;27.67;19.73;;;;;;;7.10;43.11;99914.34;2623679;39;20112;-64
2022/03/20 07:39:39;;;;;;;29.98;20.38;;;;;;;7.16;43.24;99908.50;2622955;54;20038;-65
2022/03/20 07:42:11;;;;;;;27.30;19.90;;;;;;;7.18;43.46;99918.84;2622685;54;20038;-64
2022/03/20 07:44:44;;;;;;;29.13;19.85;;;;;;;7.16;43.25;99926.91;2622793;54;20035;-63
2022/03/20 07:47:20;;;;;;;28.40;19.95;;;;;;;7.17;43.23;99927.72;2622930;54;20054;-64
2022/03/20 07:49:53;;;;;;;27.20;19.83;;;;;;;7.19;43.16;99920.53;2622465;47;20035;-66
2022/03/20 07:52:22;;;;;;;27.38;20.30;;;;;;;7.22;43.35;99928.13;2623145;54;20027;-64
2022/03/20 07:54:52;;;;;;;24.35;18.83;;;;;;;7.32;43.35;99925.47;2623165;54;20045;-63
2022/03/20 07:57:24;;;;;;;28.63;19.67;;;;;;;7.41;43.09;99924.59;2623247;54;20042;-62
2022/03/20 07:59:54;;;;;;;25.42;19.40;;;;;;;7.48;43.21;99927.47;2622848;54;20034;-63
2022/03/20 08:02:24;;;;;;;26.95;20.00;;;;;;;7.49;43.10;99942.28;2621729;54;20038;-63
2022/03/20 08:04:54;;;;;;;29.45;19.38;;;;;;;7.57;43.25;99934.50;2622310;54;20034;-64
2022/03/20 08:07:24;;;;;;;31.05;20.65;;;;;;;7.61;43.19;99935.88;2622121;46;20046;-64
2022/03/20 08:09:54;;;;;;;27.83;19.98;;;;;;;7.61;43.22;99930.59;2622128;54;20078;-62
2022/03/20 08:12:26;;;;;;;25.85;19.33;;;;;;;7.63;43.25;99920.75;2622062;54;20034;-64
2022/03/20 08:15:02;;;;;;;33.58;20.30;;;;;;;7.65;43.15;99916.19;2622373;54;20026;-64
2022/03/20 08:17:32;;;;;;;30.48;20.40;;;;;;;7.74;43.46;99917.91;2622151;54;20026;-63
2022/03/20 08:22:52;;;;;;;27.95;20.27;;;;;;;7.98;43.49;99925.25;2622678;47;20111;-66
2022/03/20 08:25:22;;;;;;;27.80;20.88;;;;;;;8.11;43.29;99922.25;2623095;54;20069;-63
2022/03/20 08:27:54;;;;;;;32.67;22.95;;;;;;;8.29;43.51;99931.03;2624030;54;20130;-64
2022/03/20 08:30:24;;;;;;;30.92;24.35;;;;;;;8.36;42.89;99925.97;2625910;39;20418;-64
2022/03/20 08:32:55;;;;;;;37.17;23.92;;;;;;;8.35;43.00;99924.31;2624696;54;20034;-64
2022/03/20 08:35:25;;;;;;;31.98;22.85;;;;;;;8.43;42.90;99930.50;2623121;54;20026;-63
2022/03/20 08:37:55;;;;;;;26.70;20.17;;;;;;;8.59;42.92;99927.19;2622696;54;20050;-64
2022/03/20 08:40:27;;;;;;;28.05;20.95;;;;;;;8.75;42.87;99931.78;2623244;54;20149;-63
2022/03/20 08:42:59;;;;;;;27.27;19.73;;;;;;;8.94;43.36;99928.13;2622301;54;20030;-65
2022/03/20 08:45:31;;;;;;;29.60;22.05;;;;;;;9.18;44.11;99930.91;2623089;54;20042;-66
2022/03/20 08:48:01;;;;;;;27.92;21.15;;;;;;;9.34;45.31;99934.59;2623224;54;20035;-64
2022/03/20 08:50:31;;;;;;;29.42;20.73;;;;;;;9.48;46.39;99939.31;2624419;39;20714;-65
2022/03/20 08:53:01;;;;;;;29.88;21.90;;;;;;;9.66;46.51;99936.56;2623330;54;20046;-66
2022/03/20 08:55:33;;;;;;;29.33;21.20;;;;;;;9.86;46.70;99935.34;2623478;54;20041;-63
2022/03/20 08:58:05;;;;;;;31.35;22.17;;;;;;;9.97;47.04;99938.69;2623490;54;20027;-65
2022/03/20 09:00:36;;;;;;;28.15;20.48;;;;;;;10.00;47.25;99933.91;2623175;54;20034;-62
2022/03/20 09:03:06;;;;;;;28.73;20.75;;;;;;;10.10;47.41;99937.22;2623298;54;20026;-65
2022/03/20 09:05:36;;;;;;;31.08;20.92;;;;;;;10.23;47.82;99941.22;2623438;39;20443;-62
2022/03/20 09:08:07;;;;;;;32.97;23.38;;;;;;;10.25;47.45;99932.16;2622740;47;20030;-65
2022/03/20 09:10:37;;;;;;;28.42;20.42;;;;;;;10.45;47.76;99939.78;2623499;54;20086;-63
2022/03/20 09:13:09;;;;;;;36.75;24.38;;;;;;;10.79;47.54;99942.28;2623018;54;20038;-65
2022/03/20 09:15:39;;;;;;;34.85;24.92;;;;;;;11.09;47.09;99940.75;2623533;39;20426;-64
2022/03/20 09:20:51;;;;;;;31.55;23.45;;;;;;;11.38;46.15;99943.66;2620227;46;20039;-63
2022/03/20 09:23:20;;;;;;;29.90;22.02;;;;;;;11.40;46.36;99939.03;2622132;54;20256;-65
2022/03/20 09:25:52;;;;;;;33.95;24.67;;;;;;;11.45;45.94;99938.50;2622200;54;20038;-62
2022/03/20 09:28:24;;;;;;;34.55;25.00;;;;;;;11.38;45.49;99953.41;2622311;54;20027;-63
2022/03/20 09:30:54;;;;;;;32.83;23.27;;;;;;;11.30;45.81;99948.97;2622722;39;20433;-64
2022/03/20 09:33:25;;;;;;;32.15;24.30;;;;;;;11.38;45.85;99961.34;2621921;54;20133;-63
2022/03/20 09:35:54;;;;;;;43.10;27.60;;;;;;;11.32;45.27;99943.53;2621897;54;20034;-62
2022/03/20 09:38:26;;;;;;;33.88;25.13;;;;;;;11.25;45.73;99945.19;2622128;54;20030;-63
2022/03/20 09:40:57;;;;;;;35.92;26.15;;;;;;;11.18;45.49;99945.03;2621226;54;20058;-63
2022/03/20 09:43:30;;;;;;;38.10;27.02;;;;;;;11.17;45.52;99948.66;2623028;54;20126;-63
2022/03/20 09:46:00;;;;;;;35.67;26.02;;;;;;;11.14;45.57;99959.59;2623960;54;20038;-64
2022/03/20 09:48:30;;;;;;;34.08;25.42;;;;;;;11.18;45.78;99955.59;2623873;47;20058;-62
2022/03/20 09:51:02;;;;;;;37.50;27.90;;;;;;;11.09;45.97;99956.63;2622953;54;20170;-63
2022/03/20 09:53:32;;;;;;;34.58;25.73;;;;;;;11.05;46.26;99960.59;2622658;54;20035;-62
2022/03/20 09:56:05;;;;;;;33.22;23.85;;;;;;;11.02;45.99;99969.72;2622481;54;20035;-63
2022/03/20 09:58:37;;;;;;;31.90;23.95;;;;;;;11.01;46.16;99977.81;2622774;54;20037;-63
2022/03/20 10:01:07;;;;;;;31.67;23.48;;;;;;;11.03;46.45;99975.84;2622156;54;20030;-62
2022/03/20 10:03:38;;;;;;;31.60;24.63;;;;;;;10.98;46.85;99972.84;2623050;54;20546;-66
2022/03/20 10:06:16;;;;;;;34.35;24.25;;;;;;;11.02;47.02;99987.38;2622698;54;20037;-61
2022/03/20 10:09:05;;;;;;;30.15;22.63;;;;;;;11.11;46.71;99981.94;2623387;54;20037;-64
2022/03/20 10:11:35;;;;;;;31.08;22.50;;;;;;;11.13;46.96;99979.94;2623695;54;20035;-65
2022/03/20 10:14:15;;;;;;;29.73;21.42;;;;;;;11.33;46.80;99996.28;2622640;54;20542;-64
2022/03/20 10:16:50;;;;;;;30.55;20.65;;;;;;;11.63;47.08;99984.16;2622268;39;20421;-63
2022/03/20 10:19:31;;;;;;;29.27;21.52;;;;;;;12.02;46.89;99991.31;2622585;39;20613;-63
2022/03/20 10:22:09;;;;;;;24.15;18.55;;;;;;;12.38;45.90;99986.31;2623022;54;20038;-63
2022/03/20 10:24:39;;;;;;;26.30;19.95;;;;;;;12.56;45.87;99983.34;2620260;47;20034;-63
2022/03/20 10:27:16;;;;;;;24.40;17.67;;;;;;;12.64;46.14;99982.47;2621714;54;20027;-63
2022/03/20 10:29:54;;;;;;;24.73;16.42;;;;;;;12.75;45.99;99979.41;2621382;54;20027;-62
2022/03/20 10:32:25;;;;;;;24.42;17.83;;;;;;;12.80;45.71;99982.34;2621452;54;20126;-62
2022/03/20 10:34:57;;;;;;;26.35;17.30;;;;;;;12.55;46.29;99991.50;2623573;39;20430;-64
2022/03/20 10:37:46;;;;;;;23.90;17.08;;;;;;;12.58;46.35;99986.66;2621589;54;20038;-64
2022/03/20 10:40:18;;;;;;;27.25;16.48;;;;;;;12.39;46.66;100005.69;2621786;54;20038;-64
2022/03/20 10:43:09;;;;;;;28.23;18.10;;;;;;;12.55;46.40;99986.19;2621846;54;20030;-64
2022/03/20 10:45:56;;;;;;;23.13;16.33;;;;;;;12.71;46.34;99994.03;2621932;54;20046;-64
2022/03/20 10:48:35;;;;;;;20.33;15.35;;;;;;;12.84;46.11;99994.25;2621019;47;20038;-63
2022/03/20 10:51:06;;;;;;;23.27;18.10;;;;;;;12.98;45.60;99983.84;2621898;54;20821;-64
2022/03/20 10:53:36;;;;;;;38.30;27.30;;;;;;;13.03;45.51;99992.13;2621764;54;20038;-64
2022/03/20 10:56:10;;;;;;;23.02;15.88;;;;;;;12.91;45.80;99994.38;2622206;54;20553;-63
2022/03/20 10:58:41;;;;;;;19.25;15.00;;;;;;;12.88;46.11;99995.56;2620384;54;20554;-65
2022/03/20 11:01:14;;;;;;;20.35;15.23;;;;;;;12.86;45.80;99994.91;2618538;54;20033;-64
2022/03/20 11:03:44;;;;;;;19.17;15.20;;;;;;;12.92;45.97;99993.38;2620248;46;20039;-64
2022/03/20 11:06:15;;;;;;;22.67;15.23;;;;;;;13.16;45.82;99984.38;2621049;54;20030;-64
2022/03/20 11:08:45;;;;;;;23.02;14.68;;;;;;;13.50;44.83;99988.38;2621268;39;20407;-63
2022/03/20 11:11:15;;;;;;;25.70;16.10;;;;;;;13.57;44.98;99978.66;2621622;54;20031;-63
2022/03/20 11:13:47;;;;;;;19.00;14.77;;;;;;;13.80;44.75;99982.06;2621523;54;20034;-64
2022/03/20 11:16:26;;;;;;;17.27;14.13;;;;;;;13.80;44.23;99978.59;2619865;54;20074;-71
2022/03/20 11:18:56;;;;;;;20.08;15.10;;;;;;;13.82;44.55;99971.22;2617815;54;20038;-69
2022/03/20 14:08:13;;;;;;;17.70;11.50;;;;;;;16.55;34.88;99935.69;2563258;54;20097;-65
2022/03/20 14:10:50;;;;;;;15.48;11.23;;;;;;;16.49;34.84;99927.69;2617437;54;20037;-66
2022/03/20 14:13:23;;;;;;;14.48;10.57;;;;;;;16.57;34.94;99911.47;2618177;54;20537;-65
2022/03/20 14:16:06;;;;;;;17.23;10.63;;;;;;;16.63;34.66;99918.66;2618354;54;20053;-65
2022/03/20 14:18:37;;;;;;;17.33;10.38;;;;;;;16.58;34.81;99919.28;2619498;39;20444;-66
2022/03/20 14:21:16;;;;;;;14.63;9.70;;;;;;;16.40;35.13;99907.56;2618815;39;20426;-65
2022/03/20 14:24:03;;;;;;;16.35;10.50;;;;;;;16.24;34.81;99914.09;2618244;54;20078;-66
2022/03/20 14:26:35;;;;;;;16.73;11.23;;;;;;;16.26;35.50;99918.22;2617456;47;20034;-64
2022/03/20 14:29:12;;;;;;;15.13;10.90;;;;;;;16.27;35.45;99916.34;2617495;39;20644;-65
2022/03/20 14:40:08;;;;;;;11.15;9.70;;;;;;;16.64;34.61;99917.63;2618782;54;20077;-65
2022/03/20 14:42:40;;;;;;;18.67;11.48;;;;;;;16.47;34.43;99922.56;2618029;54;20022;-65
2022/03/20 14:45:13;;;;;;;15.15;11.05;;;;;;;16.41;34.52;99920.72;2617526;54;20030;-65
2022/03/20 14:47:44;;;;;;;17.33;10.93;;;;;;;16.34;35.08;99917.19;2618595;54;20129;-64
2022/03/20 14:50:14;;;;;;;12.98;10.88;;;;;;;16.33;35.14;99921.72;2617957;54;20050;-65
2022/03/20 14:52:45;;;;;;;15.73;10.63;;;;;;;16.40;35.15;99915.56;2618287;54;20054;-64
2022/03/20 14:55:22;;;;;;;16.20;10.15;;;;;;;16.53;34.26;99912.91;2618040;54;20035;-64
2022/03/20 14:57:52;;;;;;;16.88;10.80;;;;;;;16.53;34.67;99912.91;2617998;54;20026;-63
2022/03/20 15:00:24;;;;;;;13.35;10.05;;;;;;;16.57;34.47;99920.31;2617398;54;20034;-64
2022/03/20 15:02:53;;;;;;;22.85;15.15;;;;;;;16.56;34.70;99915.16;2618064;54;20038;-64
2022/03/20 15:05:24;;;;;;;24.27;15.15;;;;;;;16.70;34.98;99916.84;2617703;54;20038;-64
2022/03/20 15:13:21;;;;;;;16.05;11.98;;;;;;;16.72;34.25;99914.75;2618139;46;20026;-64
2022/03/20 15:15:50;;;;;;;19.02;11.27;;;;;;;16.54;34.40;99911.91;2618262;39;20089;-65
2022/03/20 15:18:20;;;;;;;19.15;13.25;;;;;;;16.49;34.84;99917.84;2617309;54;20142;-65